Wapella, Illinois
Current Conditions -  °F | °C
As of 1:56 AM on Monday 26 Jan 2015 (Local Time) from KBMI Reporting Station
Broken Clouds Broken Clouds  
Wind Chill:   Ceiling: 1800
Heat Index: 21°   Visibility: 10mi
Dew Point: 18°   Wind: 12mph
Humidity: 89%   Direction: 350°N
Pressure: 30"   Gusts: NA
Location:  40.22°N, 88.96°W
Report Text: KBMI 260756Z AUTO 35010KT 10SM BKN018 M06/M08 A3000 RMK AO2 T10611077 SLP177
Loading
Personal Weather Stations






























Interactive Weather Map New forecast layout! Learn more

10-Day Weather Forecast

Advertisements
Track Severe Weather on mobile